createdAt,value
2022-12-11T00:01:46.142Z,14.50
2022-12-11T00:04:13.201Z,13.73
2022-12-11T00:06:40.328Z,14.55
2022-12-11T00:09:07.263Z,13.48
2022-12-11T00:11:34.292Z,12.63
2022-12-11T00:14:01.398Z,13.55
2022-12-11T00:16:28.490Z,14.18
2022-12-11T00:18:55.808Z,14.73
2022-12-11T00:21:22.949Z,15.45
2022-12-11T00:23:50.220Z,17.63
2022-12-11T00:26:17.807Z,15.10
2022-12-11T00:28:45.335Z,18.70
2022-12-11T00:31:19.704Z,16.45
2022-12-11T00:33:49.428Z,18.15
2022-12-11T00:36:20.235Z,14.32
2022-12-11T00:38:48.963Z,16.80
2022-12-11T00:41:16.354Z,24.95
2022-12-11T00:43:43.517Z,25.92
2022-12-11T00:46:11.139Z,21.60
2022-12-11T00:48:38.238Z,19.98
2022-12-11T00:51:05.910Z,24.00
2022-12-11T00:53:33.467Z,21.45
2022-12-11T00:56:00.587Z,31.10
2022-12-11T00:58:27.835Z,21.92
2022-12-11T01:00:54.891Z,18.45
2022-12-11T01:03:22.041Z,16.02
2022-12-11T01:05:54.201Z,27.85
2022-12-11T01:08:21.744Z,14.13
2022-12-11T01:10:49.049Z,15.35
2022-12-11T01:13:16.601Z,21.05
2022-12-11T01:15:45.816Z,22.70
2022-12-11T01:18:15.257Z,19.42
2022-12-11T01:20:43.884Z,16.42
2022-12-11T01:23:13.353Z,17.17
2022-12-11T01:25:41.942Z,21.95
2022-12-11T01:28:09.204Z,23.02
2022-12-11T01:30:37.122Z,29.48
2022-12-11T01:33:04.234Z,22.25
2022-12-11T01:35:31.385Z,24.75
2022-12-11T01:37:59.448Z,20.05
2022-12-11T01:40:26.920Z,33.75
2022-12-11T01:42:54.139Z,25.17
2022-12-11T01:45:32.878Z,26.33
2022-12-11T01:48:11.145Z,22.23
2022-12-11T01:50:53.681Z,24.60
2022-12-11T01:53:25.486Z,25.60
2022-12-11T01:55:55.584Z,22.08
2022-12-11T01:58:27.799Z,34.95
2022-12-11T02:00:55.913Z,42.15
2022-12-11T02:03:23.221Z,29.02
2022-12-11T02:05:50.445Z,27.05
2022-12-11T02:08:18.092Z,33.47
2022-12-11T02:11:10.832Z,27.70
2022-12-11T02:14:05.457Z,27.55
2022-12-11T02:16:52.625Z,26.42
2022-12-11T02:19:41.042Z,32.08
2022-12-11T02:22:13.938Z,25.63
2022-12-11T02:24:57.723Z,26.15
2022-12-11T02:27:36.526Z,31.85
2022-12-11T02:30:09.331Z,35.08
2022-12-11T02:32:43.495Z,31.80
2022-12-11T02:35:16.252Z,28.13
2022-12-11T02:37:46.695Z,32.80
2022-12-11T02:42:44.522Z,28.55
2022-12-11T02:45:13.676Z,28.13
2022-12-11T02:47:45.016Z,22.63
2022-12-11T02:50:16.066Z,30.50
2022-12-11T02:52:44.690Z,25.50
2022-12-11T02:55:15.139Z,29.83
2022-12-11T02:57:58.257Z,22.92
2022-12-11T03:00:25.192Z,34.05
2022-12-11T03:02:52.497Z,24.92
2022-12-11T03:05:19.582Z,35.47
2022-12-11T03:07:46.776Z,39.20
2022-12-11T03:10:18.954Z,37.95
2022-12-11T03:12:53.393Z,25.27
2022-12-11T03:15:27.443Z,22.85
2022-12-11T03:18:19.068Z,20.63
2022-12-11T03:21:06.346Z,22.52
2022-12-11T03:23:54.940Z,21.20
2022-12-11T03:26:24.859Z,27.10
2022-12-11T03:29:04.965Z,20.40
2022-12-11T03:31:40.537Z,27.92
2022-12-11T03:34:19.867Z,20.50
2022-12-11T03:36:49.242Z,34.17
2022-12-11T03:39:22.420Z,20.25
2022-12-11T03:41:51.955Z,22.73
2022-12-11T03:44:20.678Z,34.45
2022-12-11T03:46:49.308Z,18.67
2022-12-11T03:49:26.833Z,23.38
2022-12-11T03:51:56.652Z,26.52
2022-12-11T03:54:25.059Z,42.33
2022-12-11T03:56:55.720Z,40.25
2022-12-11T03:59:23.011Z,29.27
2022-12-11T04:01:50.493Z,23.85
2022-12-11T04:04:17.601Z,23.20
2022-12-11T04:06:44.658Z,26.70
2022-12-11T04:09:11.857Z,28.50
2022-12-11T04:11:39.692Z,21.42
2022-12-11T04:14:29.133Z,23.15
2022-12-11T04:16:57.259Z,21.30
2022-12-11T04:19:43.820Z,24.00
2022-12-11T04:22:33.933Z,20.35
2022-12-11T04:25:02.799Z,29.33
2022-12-11T04:27:49.097Z,30.30
2022-12-11T04:30:22.464Z,36.30
2022-12-11T04:32:50.197Z,35.85
2022-12-11T04:35:18.107Z,28.70
2022-12-11T04:37:45.095Z,25.15
2022-12-11T04:40:15.021Z,34.45
2022-12-11T04:42:42.152Z,27.73
2022-12-11T04:45:10.231Z,29.92
2022-12-11T04:47:39.279Z,27.35
2022-12-11T04:50:09.192Z,31.67
2022-12-11T04:52:36.833Z,27.90
2022-12-11T04:55:05.822Z,28.27
2022-12-11T04:57:32.784Z,38.20
2022-12-11T05:00:00.223Z,34.28
2022-12-11T05:02:27.327Z,35.55
2022-12-11T05:04:54.273Z,30.83
2022-12-11T05:07:21.352Z,34.22
2022-12-11T05:09:48.380Z,30.73
2022-12-11T05:12:15.291Z,37.58
2022-12-11T05:14:42.283Z,29.45
2022-12-11T05:17:09.287Z,34.13
2022-12-11T05:19:36.333Z,40.97
2022-12-11T05:22:03.307Z,22.55
2022-12-11T05:24:30.379Z,24.50
2022-12-11T05:26:57.312Z,35.40
2022-12-11T05:29:24.303Z,28.33
2022-12-11T05:31:51.500Z,22.83
2022-12-11T05:34:18.540Z,31.55
2022-12-11T05:36:45.656Z,37.83
2022-12-11T05:39:12.799Z,25.33
2022-12-11T05:41:40.394Z,22.65
2022-12-11T05:44:07.362Z,33.58
2022-12-11T05:46:34.440Z,27.80
2022-12-11T05:49:02.706Z,27.98
2022-12-11T05:51:30.874Z,38.22
2022-12-11T05:53:58.375Z,34.90
2022-12-11T05:56:34.201Z,35.83
2022-12-11T05:59:02.490Z,28.52
2022-12-11T06:01:39.109Z,36.05
2022-12-11T06:04:07.352Z,33.78
2022-12-11T06:06:35.330Z,18.83
2022-12-11T06:09:04.345Z,31.95
2022-12-11T06:11:34.330Z,18.95
2022-12-11T06:14:03.231Z,20.50
2022-12-11T06:16:30.272Z,33.20
2022-12-11T06:18:58.607Z,30.42
2022-12-11T06:21:32.184Z,24.85
2022-12-11T06:24:02.292Z,21.55
2022-12-11T06:26:30.015Z,45.92
2022-12-11T06:28:57.144Z,33.08
2022-12-11T06:31:25.688Z,22.83
2022-12-11T06:33:52.841Z,28.95
2022-12-11T06:36:22.187Z,21.88
2022-12-11T06:38:49.905Z,17.25
2022-12-11T06:41:17.453Z,17.33
2022-12-11T06:43:45.272Z,20.35
2022-12-11T06:46:16.660Z,19.75
2022-12-11T06:48:44.573Z,21.73
2022-12-11T06:51:14.729Z,17.23
2022-12-11T06:53:42.441Z,21.27
2022-12-11T06:56:15.437Z,17.90
2022-12-11T06:58:44.226Z,23.23
2022-12-11T07:01:21.724Z,17.88
2022-12-11T07:03:49.690Z,16.20
2022-12-11T07:06:17.495Z,17.40
2022-12-11T07:08:44.728Z,18.05
2022-12-11T07:11:14.341Z,17.52
2022-12-11T07:13:45.432Z,16.98
2022-12-11T07:16:14.854Z,17.80
2022-12-11T07:18:44.356Z,17.15
2022-12-11T07:21:13.627Z,16.98
2022-12-11T07:23:41.479Z,16.50
2022-12-11T07:26:14.316Z,14.98
2022-12-11T07:28:42.440Z,16.75
2022-12-11T07:31:18.991Z,16.45
2022-12-11T07:33:46.227Z,19.15
2022-12-11T07:36:14.538Z,18.45
2022-12-11T07:38:41.541Z,19.17
2022-12-11T07:41:11.365Z,18.20
2022-12-11T07:43:38.596Z,17.80
2022-12-11T07:46:08.912Z,19.58
2022-12-11T07:48:37.523Z,19.50
2022-12-11T07:51:17.715Z,17.90
2022-12-11T07:53:46.941Z,16.55
2022-12-11T07:56:16.438Z,19.07
2022-12-11T07:58:44.549Z,18.48
2022-12-11T08:01:13.777Z,19.73
2022-12-11T08:03:41.063Z,37.33
2022-12-11T08:06:08.453Z,21.20
2022-12-11T08:08:35.538Z,17.00
2022-12-11T08:11:04.136Z,17.25
2022-12-11T08:13:32.040Z,18.25
2022-12-11T08:15:59.809Z,17.90
2022-12-11T08:18:26.894Z,18.80
2022-12-11T08:20:56.357Z,18.10
2022-12-11T08:23:23.361Z,18.80
2022-12-11T08:25:50.380Z,18.27
2022-12-11T08:28:17.480Z,16.63
2022-12-11T08:30:45.037Z,17.70
2022-12-11T08:33:14.743Z,21.25
2022-12-11T08:35:42.391Z,20.63
2022-12-11T08:38:09.698Z,21.63
2022-12-11T08:40:36.893Z,21.38
2022-12-11T08:43:04.168Z,17.98
2022-12-11T08:45:33.732Z,19.43
2022-12-11T08:48:02.595Z,19.25
2022-12-11T08:50:30.002Z,19.13
2022-12-11T08:53:00.016Z,18.48
2022-12-11T08:55:27.327Z,17.92
2022-12-11T08:57:54.332Z,18.45
2022-12-11T09:00:21.819Z,18.20
2022-12-11T09:02:49.030Z,19.23
2022-12-11T09:05:16.309Z,17.35
2022-12-11T09:07:43.575Z,17.20
2022-12-11T09:10:10.743Z,17.38
2022-12-11T09:12:38.105Z,18.23
2022-12-11T09:15:05.930Z,19.23
2022-12-11T09:17:35.532Z,20.30
2022-12-11T09:20:03.288Z,18.77
2022-12-11T09:22:33.617Z,18.30
2022-12-11T09:25:03.702Z,21.00
2022-12-11T09:27:31.203Z,38.72
2022-12-11T09:29:58.197Z,20.30
2022-12-11T09:32:25.251Z,19.08
2022-12-11T09:34:52.245Z,18.33
2022-12-11T09:37:22.315Z,16.92
2022-12-11T09:39:49.376Z,15.65
2022-12-11T09:42:38.707Z,18.45
2022-12-11T09:45:11.170Z,17.70
2022-12-11T09:47:44.328Z,17.10
2022-12-11T09:50:23.369Z,17.33
2022-12-11T09:53:13.812Z,16.13
2022-12-11T09:58:43.031Z,17.40
2022-12-11T10:01:18.626Z,16.02
2022-12-11T10:04:07.143Z,18.02
2022-12-11T10:07:02.434Z,17.95
2022-12-11T10:09:56.090Z,17.73
2022-12-11T10:12:45.943Z,16.65
2022-12-11T10:15:25.633Z,17.42
2022-12-11T10:18:04.674Z,15.85
2022-12-11T10:20:39.266Z,16.75
2022-12-11T10:23:15.441Z,17.35
2022-12-11T10:25:50.983Z,14.77
2022-12-11T10:28:20.495Z,14.48
2022-12-11T10:30:56.615Z,16.77
2022-12-11T10:33:44.333Z,16.10
2022-12-11T10:36:18.113Z,15.70
2022-12-11T10:38:46.984Z,14.88
2022-12-11T10:41:24.779Z,12.52
2022-12-11T10:43:53.489Z,15.52
2022-12-11T10:46:26.388Z,16.38
2022-12-11T10:48:57.526Z,16.77
2022-12-11T10:51:32.254Z,19.13
2022-12-11T10:54:17.609Z,11.88
2022-12-11T10:56:48.722Z,18.00
2022-12-11T10:59:49.876Z,14.77
2022-12-11T11:02:28.560Z,17.08
2022-12-11T11:04:58.569Z,11.32
2022-12-11T11:07:34.828Z,20.30
2022-12-11T11:10:17.869Z,16.58
2022-12-11T11:12:48.418Z,18.67
2022-12-11T11:15:19.999Z,15.93
2022-12-11T11:17:55.784Z,12.43
2022-12-11T11:20:27.135Z,11.75
2022-12-11T11:22:57.921Z,12.07
2022-12-11T11:25:27.808Z,8.65
2022-12-11T11:28:01.164Z,12.82
2022-12-11T11:30:31.301Z,13.15
2022-12-11T11:33:19.598Z,8.63
2022-12-11T11:35:58.906Z,10.95
2022-12-11T11:38:52.380Z,11.15
2022-12-11T11:41:25.643Z,7.63
2022-12-11T11:43:57.957Z,10.88
2022-12-11T11:46:43.593Z,9.63
2022-12-11T11:49:23.197Z,10.20
2022-12-11T11:52:01.350Z,10.52
2022-12-11T11:54:39.787Z,12.30
2022-12-11T11:57:29.743Z,10.43
2022-12-11T12:00:13.362Z,12.23
2022-12-11T12:02:41.637Z,11.00
2022-12-11T12:05:15.956Z,10.82
2022-12-11T12:08:00.287Z,10.82
2022-12-11T12:10:44.461Z,11.02
2022-12-11T12:13:49.113Z,10.95
2022-12-11T12:16:52.773Z,10.80
2022-12-11T12:19:42.721Z,11.60
2022-12-11T12:22:28.230Z,11.52
2022-12-11T12:25:24.906Z,10.80
2022-12-11T12:28:31.902Z,7.68
2022-12-11T12:31:33.343Z,10.77
2022-12-11T12:34:35.514Z,10.80
2022-12-11T12:37:18.005Z,10.30
2022-12-11T12:40:17.288Z,10.38
2022-12-11T12:42:44.225Z,12.45
2022-12-11T12:45:23.958Z,12.15
2022-12-11T12:47:53.617Z,12.43
2022-12-11T12:50:36.993Z,12.55
2022-12-11T12:53:06.581Z,11.27
2022-12-11T12:55:35.992Z,9.27
2022-12-11T12:58:09.340Z,13.63
2022-12-11T13:00:44.171Z,12.38
2022-12-11T13:03:17.471Z,11.57
2022-12-11T13:06:08.441Z,11.32
2022-12-11T13:09:20.903Z,9.73
2022-12-11T13:11:58.084Z,9.25
2022-12-11T13:14:34.273Z,9.90
2022-12-11T13:17:22.484Z,10.30
2022-12-11T13:19:53.216Z,9.88
2022-12-11T13:22:25.031Z,11.77
2022-12-11T13:25:17.110Z,9.27
2022-12-11T13:27:44.892Z,9.48
2022-12-11T13:30:15.145Z,10.40
2022-12-11T13:32:57.391Z,10.93
2022-12-11T13:35:25.341Z,9.57
2022-12-11T13:37:59.917Z,10.18
2022-12-11T13:40:33.548Z,10.25
2022-12-11T13:43:05.862Z,9.98
2022-12-11T13:45:43.523Z,10.38
2022-12-11T13:48:21.541Z,11.05
2022-12-11T13:50:51.107Z,10.35
2022-12-11T13:53:20.312Z,10.52
2022-12-11T13:55:57.398Z,9.38
2022-12-11T13:58:25.083Z,9.98
2022-12-11T14:00:59.824Z,8.63
2022-12-11T14:03:31.278Z,10.20
2022-12-11T14:05:59.724Z,8.77
2022-12-11T14:08:34.261Z,9.25
2022-12-11T14:11:02.154Z,8.82
2022-12-11T14:13:36.564Z,10.23
2022-12-11T14:16:04.618Z,9.18
2022-12-11T14:18:34.113Z,11.07
2022-12-11T14:21:06.378Z,9.33
2022-12-11T14:23:35.824Z,10.35
2022-12-11T14:26:25.473Z,8.93
2022-12-11T14:28:53.241Z,10.10
2022-12-11T14:31:37.709Z,9.50
2022-12-11T14:34:15.832Z,8.45
2022-12-11T14:36:44.218Z,14.90
2022-12-11T14:39:21.592Z,15.73
2022-12-11T14:41:48.505Z,13.65
2022-12-11T14:44:18.000Z,12.35
2022-12-11T14:46:52.762Z,11.52
2022-12-11T14:49:31.677Z,9.63
2022-12-11T14:52:00.216Z,13.48
2022-12-11T14:54:36.161Z,9.13
2022-12-11T14:57:06.777Z,8.68
2022-12-11T14:59:41.450Z,9.15
2022-12-11T15:02:33.004Z,8.95
2022-12-11T15:05:02.163Z,10.82
2022-12-11T15:07:30.981Z,11.65
2022-12-11T15:09:57.970Z,10.82
2022-12-11T15:12:26.038Z,9.30
2022-12-11T15:15:00.889Z,8.25
2022-12-11T15:17:33.846Z,11.38
2022-12-11T15:20:11.932Z,10.52
2022-12-11T15:22:43.632Z,6.75
2022-12-11T15:25:26.977Z,9.38
2022-12-11T15:27:57.926Z,8.70
2022-12-11T15:30:27.889Z,6.78
2022-12-11T15:33:03.965Z,5.70
2022-12-11T15:35:31.366Z,8.48
2022-12-11T15:37:58.969Z,8.50
2022-12-11T15:40:34.967Z,8.98
2022-12-11T15:43:03.606Z,8.75
2022-12-11T15:45:30.852Z,7.07
2022-12-11T15:47:59.669Z,9.73
2022-12-11T15:50:29.416Z,8.80
2022-12-11T15:52:57.303Z,9.63
2022-12-11T15:55:27.075Z,8.85
2022-12-11T15:58:01.373Z,11.60
2022-12-11T16:00:28.680Z,10.95
2022-12-11T16:03:00.017Z,12.32
2022-12-11T16:05:27.672Z,9.48
2022-12-11T16:07:56.631Z,9.10
2022-12-11T16:10:23.635Z,7.60
2022-12-11T16:12:50.833Z,10.55
2022-12-11T16:15:23.523Z,9.77
2022-12-11T16:18:09.666Z,9.07
2022-12-11T16:20:39.286Z,6.28
2022-12-11T16:23:06.921Z,9.45
2022-12-11T16:25:34.861Z,12.00
2022-12-11T16:28:02.085Z,9.35
2022-12-11T16:30:29.931Z,8.40
2022-12-11T16:32:57.218Z,8.55
2022-12-11T16:35:24.406Z,8.45
2022-12-11T16:37:53.442Z,6.28
2022-12-11T16:40:24.429Z,6.78
2022-12-11T16:42:52.143Z,7.65
2022-12-11T16:45:26.719Z,6.50
2022-12-11T16:48:03.050Z,6.32
2022-12-11T16:50:43.161Z,7.60
2022-12-11T16:53:17.733Z,5.25
2022-12-11T16:55:45.034Z,4.63
2022-12-11T16:58:16.445Z,6.82
2022-12-11T17:00:43.644Z,7.30
2022-12-11T17:03:10.820Z,6.68
2022-12-11T17:05:42.809Z,6.30
2022-12-11T17:08:11.734Z,5.45
2022-12-11T17:10:40.916Z,6.60
2022-12-11T17:13:08.206Z,7.13
2022-12-11T17:18:13.812Z,6.22
2022-12-11T17:20:47.886Z,7.00
2022-12-11T17:23:26.394Z,7.10
2022-12-11T17:26:05.297Z,7.10
2022-12-11T17:28:38.163Z,6.07
2022-12-11T17:31:13.439Z,6.72
2022-12-11T17:33:42.069Z,6.63
2022-12-11T17:36:13.463Z,6.68
2022-12-11T17:38:40.970Z,6.95
2022-12-11T17:41:09.569Z,6.57
2022-12-11T17:43:37.008Z,5.60
2022-12-11T17:46:07.748Z,4.35
2022-12-11T17:48:37.922Z,5.90
2022-12-11T17:51:07.755Z,6.28
2022-12-11T17:53:38.753Z,7.05
2022-12-11T17:56:08.618Z,6.78
2022-12-11T17:58:36.408Z,6.88
2022-12-11T18:01:08.325Z,8.23
2022-12-11T18:03:37.082Z,7.60
2022-12-11T18:06:10.643Z,4.68
2022-12-11T18:08:39.051Z,4.60
2022-12-11T18:11:11.952Z,5.55
2022-12-11T18:13:39.632Z,6.63
2022-12-11T18:16:11.571Z,4.22
2022-12-11T18:18:40.007Z,7.40
2022-12-11T18:21:07.224Z,9.30
2022-12-11T18:23:34.970Z,4.82
2022-12-11T18:26:02.316Z,5.28
2022-12-11T18:28:32.205Z,5.43
2022-12-11T18:31:03.977Z,7.03
2022-12-11T18:33:32.341Z,3.97
2022-12-11T18:35:59.529Z,4.13
2022-12-11T18:38:26.920Z,4.15
2022-12-11T18:40:54.169Z,5.53
2022-12-11T18:43:21.294Z,4.80
2022-12-11T18:45:52.034Z,5.25
2022-12-11T18:48:19.231Z,3.90
2022-12-11T18:50:48.120Z,4.97
2022-12-11T18:53:17.929Z,4.95
2022-12-11T18:56:05.226Z,5.50
2022-12-11T19:08:17.551Z,5.45
2022-12-11T19:17:25.026Z,5.65
2022-12-11T19:20:19.037Z,6.07
2022-12-11T19:26:14.168Z,7.13
2022-12-11T19:28:48.493Z,8.10
2022-12-11T19:34:33.326Z,8.43
2022-12-11T19:37:20.250Z,6.97
2022-12-11T19:39:51.490Z,9.23
2022-12-11T19:42:20.189Z,5.38
2022-12-11T19:45:04.148Z,7.22
2022-12-11T19:47:35.358Z,8.93
2022-12-11T19:50:16.548Z,10.13
2022-12-11T19:53:05.559Z,8.95
2022-12-11T19:55:33.311Z,8.68
2022-12-11T19:58:00.475Z,8.25
2022-12-11T20:00:28.687Z,11.57
2022-12-11T20:02:59.927Z,10.85
2022-12-11T20:05:27.005Z,6.57
2022-12-11T20:07:59.491Z,10.68
2022-12-11T20:10:39.639Z,10.45
2022-12-11T20:13:07.205Z,12.25
2022-12-11T20:15:34.538Z,10.98
2022-12-11T20:18:02.176Z,8.63
2022-12-11T20:20:30.213Z,13.90
2022-12-11T20:23:16.838Z,14.40
2022-12-11T20:26:37.257Z,11.95
2022-12-11T20:29:16.277Z,11.02
2022-12-11T20:32:01.358Z,10.77
2022-12-11T20:34:32.102Z,14.02
2022-12-11T20:37:00.681Z,11.13
2022-12-11T20:39:27.741Z,10.35
2022-12-11T20:41:57.693Z,9.20
2022-12-11T20:44:47.185Z,12.88
2022-12-11T20:47:16.286Z,12.70
2022-12-11T20:49:43.936Z,12.68
2022-12-11T20:52:10.947Z,12.20
2022-12-11T20:54:41.112Z,8.98
2022-12-11T20:57:08.626Z,13.43
2022-12-11T20:59:36.743Z,9.82
2022-12-11T21:02:05.884Z,12.10
2022-12-11T21:04:33.383Z,10.70
2022-12-11T21:07:01.036Z,12.70
2022-12-11T21:09:29.459Z,14.10
2022-12-11T21:12:00.451Z,16.67
2022-12-11T21:14:29.247Z,18.30
2022-12-11T21:16:56.503Z,14.93
2022-12-11T21:19:24.540Z,16.95
2022-12-11T21:21:52.860Z,12.15
2022-12-11T21:24:26.890Z,14.07
2022-12-11T21:26:56.504Z,13.80
2022-12-11T21:29:25.430Z,13.80
2022-12-11T21:31:53.325Z,13.25
2022-12-11T21:34:25.318Z,13.38
2022-12-11T21:36:57.069Z,15.15
2022-12-11T21:39:26.249Z,18.63
2022-12-11T21:41:53.507Z,17.35
2022-12-11T21:47:09.918Z,16.55
2022-12-11T21:49:38.194Z,16.83
2022-12-11T21:52:05.718Z,13.30
2022-12-11T21:54:32.864Z,19.73
2022-12-11T21:57:00.134Z,16.83
2022-12-11T21:59:28.730Z,21.20
2022-12-11T22:01:55.855Z,16.13
2022-12-11T22:04:22.918Z,15.95
2022-12-11T22:06:50.141Z,16.33
2022-12-11T22:09:18.145Z,14.93
2022-12-11T22:11:46.447Z,13.55
2022-12-11T22:14:15.633Z,17.63
2022-12-11T22:16:43.567Z,19.95
2022-12-11T22:19:10.850Z,14.40
2022-12-11T22:21:38.279Z,20.50
2022-12-11T22:24:05.579Z,14.55
2022-12-11T22:26:33.153Z,17.38
2022-12-11T22:29:00.200Z,15.30
2022-12-11T22:31:28.351Z,12.50
2022-12-11T22:33:55.727Z,18.02
2022-12-11T22:36:25.433Z,15.80
2022-12-11T22:38:52.844Z,15.30
2022-12-11T22:41:27.921Z,17.73
2022-12-11T22:43:56.068Z,20.42
2022-12-11T22:46:25.603Z,16.63
2022-12-11T22:48:53.898Z,12.67
2022-12-11T22:51:21.577Z,15.15
2022-12-11T22:53:48.979Z,12.60
2022-12-11T22:56:16.693Z,13.20
2022-12-11T22:58:43.838Z,14.77
2022-12-11T23:01:18.403Z,13.70
2022-12-11T23:03:46.558Z,11.57
2022-12-11T23:06:16.093Z,12.80
2022-12-11T23:08:44.145Z,16.08
2022-12-11T23:11:21.519Z,17.40
2022-12-11T23:13:48.633Z,15.70
2022-12-11T23:16:16.108Z,12.70
2022-12-11T23:18:43.372Z,13.90
2022-12-11T23:21:11.635Z,13.20
2022-12-11T23:23:39.068Z,12.15
2022-12-11T23:26:08.834Z,9.48
2022-12-11T23:28:36.357Z,14.02
2022-12-11T23:31:03.654Z,9.02
2022-12-11T23:33:31.113Z,11.23
2022-12-11T23:35:59.482Z,14.93
2022-12-11T23:38:27.833Z,12.32
2022-12-11T23:40:56.150Z,12.68
2022-12-11T23:43:23.429Z,12.98
2022-12-11T23:45:50.569Z,12.93
2022-12-11T23:48:18.022Z,12.98
2022-12-11T23:50:46.167Z,9.77
2022-12-11T23:53:13.320Z,10.68
2022-12-11T23:55:42.648Z,10.80
2022-12-11T23:58:10.937Z,11.32
